GHB - Wetterstation

--- Lilienthal-Gleiter-Unterfranken e.V. --- (Impressum)
-> Windverlauf / Grafik
-> Barometerverlauf / Grafik
-> Wetter Links
-> WS GHB auf Windy



Bitte Uhrzeit beachten ob Daten aktuell sind!

Anzeige der letzten 100 Messwerte (~8 Stunden)
Datum Zeit Wind Richtung Richtung Böen Temperatur Feuchte Luftdruck
22.01.2022 10:22:48 3.67 km/h 286.8 ° W-NW 7.92 km/h 1.5 °C 80 % 1031.62 hPa
22.01.2022 10:12:38 3.25 km/h 328.2 ° N-NW 10.44 km/h 1.5 °C 80 % 1031.52 hPa
22.01.2022 10:07:56 3.99 km/h 275 ° W 10.08 km/h 1.4 °C 80 % 1031.42 hPa
22.01.2022 10:03:14 1.16 km/h 288.9 ° W-NW 3.6 km/h 1.4 °C 80 % 1031.52 hPa
22.01.2022 09:58:32 2.29 km/h 283.2 ° W-NW 5.04 km/h 1.4 °C 80 % 1031.52 hPa
22.01.2022 09:53:50 2.63 km/h 253.7 ° W-SW 11.52 km/h 1.4 °C 80 % 1031.62 hPa
22.01.2022 09:49:08 2.99 km/h 272.9 ° W 10.8 km/h 1.3 °C 80 % 1031.42 hPa
22.01.2022 09:44:26 2.14 km/h 316.6 ° NW 3.6 km/h 1.3 °C 79 % 1031.32 hPa
22.01.2022 09:39:44 3.09 km/h 308.8 ° NW 8.28 km/h 1.3 °C 80 % 1031.32 hPa
22.01.2022 09:35:02 1.43 km/h 328.2 ° N-NW 6.84 km/h 1.3 °C 81 % 1031.32 hPa
22.01.2022 09:30:21 3.29 km/h 281.1 ° W 7.2 km/h 1.3 °C 80.5 % 1031.22 hPa
22.01.2022 09:25:39 4.88 km/h 319.6 ° NW 9 km/h 1.2 °C 80 % 1031.22 hPa
22.01.2022 09:20:57 4.44 km/h 283 ° W-NW 9.72 km/h 1.2 °C 80 % 1031.02 hPa
22.01.2022 09:16:15 1.5 km/h 236.1 ° SW 6.12 km/h 1.2 °C 80 % 1031.02 hPa
22.01.2022 09:11:33 4.79 km/h 295.8 ° W-NW 8.28 km/h 1.1 °C 80 % 1031.02 hPa
22.01.2022 09:06:51 3.85 km/h 293.5 ° W-NW 8.28 km/h 1.1 °C 80 % 1031.02 hPa
22.01.2022 09:02:09 4.77 km/h 280.9 ° W 7.92 km/h 1.1 °C 80 % 1031.02 hPa
22.01.2022 08:57:28 4.7 km/h 323.6 ° NW 10.44 km/h 1.1 °C 80 % 1031.02 hPa
22.01.2022 08:49:54 1.22 km/h 306.1 ° NW 2.88 km/h 1 °C 80 % 1031.02 hPa
22.01.2022 08:43:24 5.65 km/h 294.3 ° W-NW 9.36 km/h 1 °C 80 % 1030.92 hPa
22.01.2022 08:38:42 3.26 km/h 289.7 ° W-NW 6.48 km/h 1 °C 80 % 1030.92 hPa
22.01.2022 08:34:00 5.27 km/h 291.8 ° W-NW 8.64 km/h 1 °C 80 % 1030.92 hPa
22.01.2022 08:29:18 5.33 km/h 286.1 ° W-NW 8.64 km/h 1 °C 80 % 1031.02 hPa
22.01.2022 08:24:36 3.83 km/h 264.7 ° W 6.12 km/h 0.9 °C 80 % 1030.92 hPa
22.01.2022 08:19:54 3.74 km/h 272 ° W 5.4 km/h 0.9 °C 80 % 1030.82 hPa
22.01.2022 08:15:12 3.16 km/h 256.5 ° W-SW 7.92 km/h 0.9 °C 79.5 % 1030.82 hPa
22.01.2022 08:10:30 2.6 km/h 270.8 ° W 5.76 km/h 0.9 °C 80 % 1030.82 hPa
22.01.2022 08:05:48 5.76 km/h 274.6 ° W 11.52 km/h 0.9 °C 80 % 1030.72 hPa
22.01.2022 08:01:06 4.27 km/h 269.5 ° W 10.08 km/h 0.9 °C 79.5 % 1030.62 hPa
22.01.2022 07:56:24 4.87 km/h 246.8 ° W-SW 9.72 km/h 0.9 °C 79.5 % 1030.72 hPa
22.01.2022 07:51:42 7.46 km/h 274.1 ° W 11.16 km/h 0.9 °C 79.5 % 1030.62 hPa
22.01.2022 07:47:00 4.75 km/h 280 ° W 8.64 km/h 0.9 °C 79.5 % 1030.62 hPa
22.01.2022 07:42:18 2.71 km/h 251.6 ° W-SW 8.64 km/h 0.9 °C 79.5 % 1030.72 hPa
22.01.2022 07:37:36 3.58 km/h 294.3 ° W-NW 6.84 km/h 0.9 °C 80 % 1030.72 hPa
22.01.2022 07:32:54 5.93 km/h 278.8 ° W 12.24 km/h 0.9 °C 79.5 % 1030.52 hPa
22.01.2022 07:28:12 6.21 km/h 272.5 ° W 11.52 km/h 0.9 °C 79.5 % 1030.52 hPa
22.01.2022 07:23:31 5.47 km/h 277.9 ° W 10.08 km/h 0.9 °C 79.5 % 1030.42 hPa
22.01.2022 07:18:49 3.92 km/h 281.1 ° W 9 km/h 0.9 °C 79 % 1030.52 hPa
22.01.2022 07:14:07 5.17 km/h 287.8 ° W-NW 7.92 km/h 0.9 °C 79.5 % 1030.52 hPa
22.01.2022 07:09:25 5.29 km/h 285.7 ° W-NW 10.08 km/h 0.9 °C 79.5 % 1030.42 hPa
22.01.2022 07:04:43 4.02 km/h 275.4 ° W 9.72 km/h 0.9 °C 79.5 % 1030.32 hPa
22.01.2022 07:00:01 4.11 km/h 280.4 ° W 7.92 km/h 0.9 °C 80 % 1030.12 hPa
22.01.2022 06:55:19 6.23 km/h 277.5 ° W 9.72 km/h 0.8 °C 80 % 1030.22 hPa
22.01.2022 06:50:37 5.9 km/h 299.8 ° W-NW 9.72 km/h 0.8 °C 79.5 % 1030.32 hPa
22.01.2022 06:45:55 6.25 km/h 296.2 ° W-NW 10.8 km/h 0.8 °C 80 % 1030.12 hPa
22.01.2022 06:41:14 3.26 km/h 318.5 ° NW 9.36 km/h 0.8 °C 79.5 % 1030.12 hPa
22.01.2022 06:36:32 4.53 km/h 294.1 ° W-NW 8.28 km/h 0.8 °C 80 % 1030.12 hPa
22.01.2022 06:29:07 6.83 km/h 303.8 ° NW 9.36 km/h 0.8 °C 79.5 % 1029.92 hPa
22.01.2022 06:24:25 6.26 km/h 309.7 ° NW 9.36 km/h 0.8 °C 79.5 % 1029.92 hPa
22.01.2022 06:19:43 4.57 km/h 317.9 ° NW 7.56 km/h 0.8 °C 79.5 % 1029.82 hPa
22.01.2022 06:15:01 7.29 km/h 293.1 ° W-NW 10.8 km/h 0.8 °C 80.5 % 1029.82 hPa
22.01.2022 06:10:19 9.16 km/h 297.7 ° W-NW 13.68 km/h 0.8 °C 78.5 % 1029.72 hPa
22.01.2022 06:05:38 6.34 km/h 295.4 ° W-NW 10.44 km/h 0.8 °C 80 % 1029.82 hPa
22.01.2022 06:00:56 7.26 km/h 273.1 ° W 11.16 km/h 0.8 °C 81 % 1029.82 hPa
22.01.2022 05:56:14 3.97 km/h 282.8 ° W-NW 8.28 km/h 0.8 °C 79.5 % 1029.92 hPa
22.01.2022 05:51:32 5.88 km/h 302.9 ° W-NW 10.08 km/h 0.9 °C 80 % 1029.82 hPa
22.01.2022 05:46:50 6.68 km/h 287 ° W-NW 10.44 km/h 0.9 °C 79.5 % 1029.82 hPa
22.01.2022 05:42:09 6.28 km/h 313.9 ° NW 13.32 km/h 0.9 °C 79.5 % 1029.82 hPa
22.01.2022 05:37:27 6.1 km/h 296.6 ° W-NW 9.72 km/h 0.9 °C 79.5 % 1029.72 hPa
22.01.2022 05:32:45 7.77 km/h 310.5 ° NW 15.48 km/h 0.9 °C 79.5 % 1029.72 hPa
22.01.2022 05:23:56 3.99 km/h 309.9 ° NW 6.84 km/h 0.9 °C 79.5 % 1030.02 hPa
22.01.2022 05:19:14 3.66 km/h 304.8 ° NW 5.4 km/h 0.9 °C 79.5 % 1029.92 hPa
22.01.2022 05:14:32 4.34 km/h 280.7 ° W 6.84 km/h 0.9 °C 80 % 1030.12 hPa
22.01.2022 05:09:50 5.62 km/h 281.5 ° W-NW 10.8 km/h 0.9 °C 80 % 1030.22 hPa
22.01.2022 05:05:09 6.09 km/h 285.7 ° W-NW 10.8 km/h 0.9 °C 79.5 % 1030.22 hPa
22.01.2022 05:00:26 3.19 km/h 273.7 ° W 7.56 km/h 0.9 °C 79 % 1030.22 hPa
22.01.2022 04:55:44 2.33 km/h 307.4 ° NW 4.32 km/h 0.9 °C 80.5 % 1030.22 hPa
22.01.2022 04:51:02 4.62 km/h 272.3 ° W 9.72 km/h 0.9 °C 79.5 % 1030.22 hPa
22.01.2022 04:46:20 5.5 km/h 318.1 ° NW 7.2 km/h 0.9 °C 80 % 1030.32 hPa
22.01.2022 04:41:38 7.77 km/h 291.8 ° W-NW 11.16 km/h 0.9 °C 79.5 % 1030.22 hPa
22.01.2022 04:36:57 6.46 km/h 289.9 ° W-NW 9.36 km/h 0.9 °C 79 % 1030.22 hPa
22.01.2022 04:32:15 6.12 km/h 280.4 ° W 9.36 km/h 0.9 °C 79.5 % 1030.12 hPa
22.01.2022 04:27:33 4.81 km/h 254.6 ° W-SW 9 km/h 0.9 °C 79.5 % 1030.32 hPa
22.01.2022 04:22:51 5.3 km/h 268.3 ° W 7.92 km/h 0.9 °C 79.5 % 1030.22 hPa
22.01.2022 04:18:09 3.4 km/h 296.2 ° W-NW 10.44 km/h 0.9 °C 79.5 % 1030.22 hPa
22.01.2022 04:13:28 6.63 km/h 280.9 ° W 9.72 km/h 0.9 °C 80 % 1030.32 hPa
22.01.2022 04:08:46 2.56 km/h 312.2 ° NW 7.92 km/h 0.9 °C 80 % 1030.42 hPa
22.01.2022 04:04:04 4.76 km/h 295.6 ° W-NW 10.08 km/h 0.9 °C 79.5 % 1030.32 hPa
22.01.2022 03:59:22 2.24 km/h 303.2 ° W-NW 4.32 km/h 0.8 °C 79.5 % 1030.22 hPa
22.01.2022 03:54:40 4.37 km/h 332 ° N-NW 7.2 km/h 0.9 °C 79.5 % 1030.32 hPa
22.01.2022 03:49:58 7.03 km/h 309.7 ° NW 10.8 km/h 0.9 °C 79.5 % 1030.32 hPa
22.01.2022 03:45:17 5.57 km/h 254.8 ° W-SW 9.36 km/h 0.8 °C 79.5 % 1030.22 hPa
22.01.2022 03:40:35 7.32 km/h 291.8 ° W-NW 10.8 km/h 0.8 °C 79.5 % 1030.32 hPa
22.01.2022 03:35:53 6.49 km/h 268 ° W 9.72 km/h 0.8 °C 79.5 % 1030.22 hPa
22.01.2022 03:31:11 5.34 km/h 282.8 ° W-NW 9 km/h 0.8 °C 79.5 % 1030.32 hPa
22.01.2022 03:26:29 6.23 km/h 287.8 ° W-NW 10.08 km/h 0.8 °C 79.5 % 1030.22 hPa
22.01.2022 03:19:22 7.51 km/h 264.3 ° W 12.24 km/h 0.8 °C 79.5 % 1030.32 hPa
22.01.2022 03:09:23 5.69 km/h 316.6 ° NW 10.08 km/h 0.7 °C 78.5 % 1030.32 hPa
22.01.2022 03:04:41 6.85 km/h 270.4 ° W 9.36 km/h 0.7 °C 80 % 1030.42 hPa
22.01.2022 02:59:59 8.41 km/h 290.1 ° W-NW 12.24 km/h 0.7 °C 79.5 % 1030.22 hPa
22.01.2022 02:55:18 8.58 km/h 274.6 ° W 11.52 km/h 0.7 °C 80.5 % 1030.32 hPa
22.01.2022 02:50:36 7.78 km/h 293.9 ° W-NW 12.6 km/h 0.6 °C 79.5 % 1030.42 hPa
22.01.2022 02:45:54 7.99 km/h 285.7 ° W-NW 15.12 km/h 0.5 °C 79.5 % 1030.22 hPa
22.01.2022 02:37:26 8.89 km/h 269.1 ° W 12.24 km/h 0.5 °C 79.5 % 1030.22 hPa
22.01.2022 02:32:44 5.39 km/h 281.1 ° W 9 km/h 0.4 °C 79.5 % 1030.22 hPa
22.01.2022 02:28:03 5.84 km/h 290.5 ° W-NW 10.44 km/h 0.4 °C 80 % 1030.12 hPa
22.01.2022 02:23:21 5 km/h 319.6 ° NW 7.56 km/h 0.4 °C 79.5 % 1030.22 hPa
22.01.2022 02:18:39 4.26 km/h 261.5 ° W 6.12 km/h 0.3 °C 80.5 % 1030.22 hPa
22.01.2022 02:13:57 5.73 km/h 259.6 ° W 11.88 km/h 0.3 °C 79.5 % 1030.42 hPa
22.01.2022 02:09:15 6.02 km/h 281.7 ° W-NW 8.64 km/h 0.3 °C 79.5 % 1030.32 hPa